Time;durP1;ratioP1;P1;durP2;ratioP2;P2;SDS_P1;SDS_P2;PMS_P1;PMS_P2;Temp;Humidity;BMP_temperature;BMP_pressure;BME280_temperature;BME280_humidity;BME280_pressure;Samples;Min_cycle;Max_cycle;Signal;HPM_P1;HPM_P2
2023/03/08 00:02:09;;;;;;;20.48;13.20;;;;;;;;;;4353080;28;10000576;-71
2023/03/08 00:04:43;;;;;;;22.15;14.05;;;;;;;;;;5037843;28;20037;-71
2023/03/08 00:07:13;;;;;;;21.05;13.40;;;;;;;;;;5044658;28;20087;-71
2023/03/08 00:09:40;;;;;;;20.63;12.95;;;;;;;;;;5034532;28;20470;-71
2023/03/08 00:12:13;;;;;;;19.27;12.23;;;;;;;;;;5051888;28;20523;-71
2023/03/08 00:14:47;;;;;;;18.83;11.63;;;;;;;;;;5056812;28;20028;-71
2023/03/08 00:17:13;;;;;;;16.25;11.23;;;;;;;;;;5044809;28;20453;-71
2023/03/08 00:19:46;;;;;;;17.20;11.65;;;;;;;;;;5048237;28;20108;-72
2023/03/08 00:22:17;;;;;;;17.52;12.10;;;;;;;;;;5054738;28;20036;-71
2023/03/08 00:24:44;;;;;;;17.70;11.75;;;;;;;;;;5053662;28;20141;-71
2023/03/08 00:27:13;;;;;;;16.60;11.32;;;;;;;;;;5048196;28;20040;-71
2023/03/08 00:29:46;;;;;;;15.85;11.02;;;;;;;;;;5064991;28;20512;-71
2023/03/08 00:32:22;;;;;;;16.40;10.98;;;;;;;;;;5047358;28;20021;-71
2023/03/08 00:34:55;;;;;;;16.27;10.80;;;;;;;;;;5052865;28;20404;-71
2023/03/08 00:37:25;;;;;;;17.27;11.63;;;;;;;;;;5067031;28;20093;-71
2023/03/08 00:39:57;;;;;;;15.88;10.32;;;;;;;;;;5059389;28;20083;-71
2023/03/08 00:42:29;;;;;;;15.73;10.70;;;;;;;;;;5045091;28;20061;-71
2023/03/08 00:45:00;;;;;;;16.63;11.65;;;;;;;;;;5057344;28;20163;-71
2023/03/08 00:47:34;;;;;;;18.17;12.05;;;;;;;;;;5048785;28;20041;-71
2023/03/08 00:50:05;;;;;;;16.73;11.40;;;;;;;;;;5054862;28;20024;-71
2023/03/08 00:52:39;;;;;;;16.80;11.75;;;;;;;;;;5042742;28;20100;-71
2023/03/08 00:55:10;;;;;;;17.52;12.10;;;;;;;;;;5053208;28;20128;-71
2023/03/08 00:57:44;;;;;;;17.02;11.48;;;;;;;;;;5041240;28;20128;-71
2023/03/08 01:00:12;;;;;;;18.95;12.50;;;;;;;;;;5038875;28;20033;-71
2023/03/08 01:02:40;;;;;;;17.63;11.73;;;;;;;;;;5067949;28;20044;-71
2023/03/08 01:05:12;;;;;;;18.95;12.25;;;;;;;;;;5065836;28;20024;-71
2023/03/08 01:07:44;;;;;;;18.35;12.35;;;;;;;;;;5054366;28;20577;-71
2023/03/08 01:10:16;;;;;;;18.63;11.77;;;;;;;;;;5065861;28;20044;-72
2023/03/08 01:12:47;;;;;;;18.73;12.40;;;;;;;;;;5070019;28;20419;-71
2023/03/08 01:15:16;;;;;;;17.45;11.68;;;;;;;;;;5051777;28;20029;-71
2023/03/08 01:17:43;;;;;;;19.08;12.27;;;;;;;;;;5039734;28;20029;-71
2023/03/08 01:20:09;;;;;;;17.17;11.80;;;;;;;;;;5063317;28;20394;-71
2023/03/08 01:22:40;;;;;;;17.17;11.45;;;;;;;;;;5045136;28;20047;-71
2023/03/08 01:25:11;;;;;;;18.83;11.38;;;;;;;;;;5055156;28;20028;-71
2023/03/08 01:27:45;;;;;;;17.10;11.20;;;;;;;;;;5053543;28;20033;-71
2023/03/08 01:30:15;;;;;;;15.18;10.60;;;;;;;;;;5044233;28;20029;-71
2023/03/08 01:32:52;;;;;;;15.45;9.80;;;;;;;;;;5058123;28;20029;-71
2023/03/08 01:35:22;;;;;;;15.05;9.85;;;;;;;;;;5039523;28;20421;-71
2023/03/08 01:37:54;;;;;;;15.90;10.10;;;;;;;;;;5047331;28;20110;-71
2023/03/08 01:40:24;;;;;;;12.67;7.63;;;;;;;;;;5051583;28;20017;-71
2023/03/08 01:42:56;;;;;;;17.30;10.43;;;;;;;;;;5055679;28;20032;-71
2023/03/08 01:45:45;;;;;;;16.10;10.00;;;;;;;;;;5044780;28;20041;-71
2023/03/08 01:48:20;;;;;;;16.27;9.82;;;;;;;;;;5030848;28;20386;-71
2023/03/08 01:50:51;;;;;;;16.23;10.23;;;;;;;;;;5036170;28;20482;-71
2023/03/08 01:53:22;;;;;;;13.63;9.00;;;;;;;;;;5041288;28;20028;-71
2023/03/08 01:55:51;;;;;;;13.68;9.32;;;;;;;;;;5048772;28;20600;-71
2023/03/08 01:58:18;;;;;;;15.18;9.18;;;;;;;;;;5046953;28;20048;-71
2023/03/08 02:00:48;;;;;;;10.98;7.85;;;;;;;;;;5053006;28;20020;-72
2023/03/08 02:03:21;;;;;;;14.00;7.97;;;;;;;;;;5047754;28;20037;-71
2023/03/08 02:05:53;;;;;;;9.68;6.93;;;;;;;;;;5043361;28;20455;-71
2023/03/08 02:08:23;;;;;;;8.75;6.20;;;;;;;;;;5047278;28;20438;-71
2023/03/08 02:10:54;;;;;;;11.30;6.88;;;;;;;;;;5038051;28;20040;-71
2023/03/08 02:13:27;;;;;;;11.90;7.80;;;;;;;;;;5049344;28;20060;-71
2023/03/08 02:15:58;;;;;;;12.20;7.38;;;;;;;;;;5044341;28;20028;-71
2023/03/08 02:18:28;;;;;;;10.63;7.15;;;;;;;;;;5059006;28;20041;-71
2023/03/08 02:20:59;;;;;;;11.10;7.13;;;;;;;;;;5060884;28;20029;-71
2023/03/08 02:23:31;;;;;;;12.10;6.97;;;;;;;;;;5041213;28;20033;-71
2023/03/08 02:26:02;;;;;;;8.80;6.13;;;;;;;;;;5040928;28;20045;-71
2023/03/08 02:28:34;;;;;;;10.77;6.43;;;;;;;;;;5052453;28;20036;-71
2023/03/08 02:31:09;;;;;;;8.07;4.65;;;;;;;;;;5067694;28;20127;-71
2023/03/08 02:33:38;;;;;;;8.90;5.78;;;;;;;;;;5048697;28;20111;-71
2023/03/08 02:36:11;;;;;;;8.85;5.80;;;;;;;;;;5062713;28;20033;-70
2023/03/08 02:38:41;;;;;;;7.40;5.22;;;;;;;;;;5040491;28;20534;-71
2023/03/08 02:41:13;;;;;;;7.95;5.20;;;;;;;;;;5056259;28;20036;-71
2023/03/08 02:43:48;;;;;;;9.10;5.28;;;;;;;;;;5029155;28;20079;-71
2023/03/08 02:46:18;;;;;;;7.25;5.18;;;;;;;;;;5043487;28;20037;-71
2023/03/08 02:48:52;;;;;;;7.57;4.97;;;;;;;;;;5050761;28;20025;-71
2023/03/08 02:51:22;;;;;;;7.30;4.93;;;;;;;;;;5047199;28;20513;-71
2023/03/08 02:53:53;;;;;;;7.53;5.13;;;;;;;;;;5036729;28;20052;-71
2023/03/08 02:56:25;;;;;;;6.55;4.70;;;;;;;;;;5035073;28;20036;-71
2023/03/08 03:52:31;;;;;;;11.13;7.90;;;;;;;;;;5032651;28;20561;-71
2023/03/08 03:55:01;;;;;;;10.23;7.45;;;;;;;;;;5038300;28;20029;-71
2023/03/08 03:57:33;;;;;;;11.57;7.70;;;;;;;;;;5046092;28;20040;-71
2023/03/08 04:00:04;;;;;;;10.98;7.88;;;;;;;;;;5066732;28;20040;-70
2023/03/08 04:02:33;;;;;;;11.85;8.20;;;;;;;;;;5058418;28;20035;-70
2023/03/08 04:05:08;;;;;;;13.00;8.10;;;;;;;;;;5039234;28;20052;-71
2023/03/08 04:07:41;;;;;;;12.35;8.20;;;;;;;;;;5040844;28;20045;-71
2023/03/08 04:10:18;;;;;;;13.15;8.35;;;;;;;;;;5032714;28;20070;-71
2023/03/08 04:12:48;;;;;;;12.30;8.35;;;;;;;;;;5037853;28;20045;-71
2023/03/08 04:15:15;;;;;;;12.35;8.60;;;;;;;;;;5040796;28;20591;-71
2023/03/08 04:17:41;;;;;;;13.73;9.68;;;;;;;;;;5035027;28;20056;-71
2023/03/08 04:20:10;;;;;;;13.10;9.43;;;;;;;;;;5037704;28;20087;-71
2023/03/08 04:22:39;;;;;;;12.57;9.07;;;;;;;;;;5047881;28;20066;-71
2023/03/08 04:25:10;;;;;;;13.77;9.60;;;;;;;;;;5047811;28;20029;-72
2023/03/08 04:27:42;;;;;;;15.13;10.23;;;;;;;;;;5048806;28;20079;-71
2023/03/08 04:30:13;;;;;;;17.02;11.63;;;;;;;;;;5047303;28;20037;-71
2023/03/08 04:32:43;;;;;;;19.08;13.85;;;;;;;;;;5040733;28;20037;-71
2023/03/08 04:35:09;;;;;;;25.80;17.67;;;;;;;;;;5031724;28;20040;-71
2023/03/08 04:37:39;;;;;;;26.65;18.00;;;;;;;;;;5028958;28;20430;-71
2023/03/08 04:40:08;;;;;;;26.05;16.27;;;;;;;;;;5034803;28;20049;-71
2023/03/08 04:42:34;;;;;;;22.75;14.80;;;;;;;;;;5048350;28;20029;-72
2023/03/08 04:45:06;;;;;;;20.10;12.77;;;;;;;;;;5047259;28;20082;-71
2023/03/08 04:47:35;;;;;;;20.63;13.95;;;;;;;;;;5043917;28;20403;-71
2023/03/08 04:50:05;;;;;;;20.23;13.60;;;;;;;;;;5028347;28;20068;-71
2023/03/08 04:52:32;;;;;;;19.70;13.40;;;;;;;;;;5029616;28;20041;-71
2023/03/08 04:54:58;;;;;;;19.50;13.07;;;;;;;;;;5048115;28;20033;-71
2023/03/08 04:57:27;;;;;;;19.60;13.75;;;;;;;;;;5045296;28;20441;-71
2023/03/08 04:59:53;;;;;;;18.77;12.95;;;;;;;;;;5044448;28;20397;-71
2023/03/08 05:02:21;;;;;;;18.25;13.25;;;;;;;;;;5033319;28;20461;-71
2023/03/08 05:04:49;;;;;;;19.27;13.40;;;;;;;;;;5042524;28;20037;-71
2023/03/08 05:07:16;;;;;;;19.23;12.70;;;;;;;;;;5037630;28;20057;-71
2023/03/08 05:09:43;;;;;;;20.10;13.10;;;;;;;;;;5028569;28;20037;-71
2023/03/08 05:12:12;;;;;;;20.95;13.65;;;;;;;;;;5029688;28;20061;-71
2023/03/08 05:14:42;;;;;;;20.20;13.70;;;;;;;;;;5040585;28;20036;-71
2023/03/08 05:17:10;;;;;;;18.63;13.27;;;;;;;;;;5033600;28;20040;-71
2023/03/08 05:19:39;;;;;;;18.70;13.48;;;;;;;;;;5048509;28;20025;-71
2023/03/08 05:22:05;;;;;;;19.02;12.70;;;;;;;;;;5048135;28;20021;-71
2023/03/08 05:24:33;;;;;;;18.23;12.82;;;;;;;;;;5047109;28;20024;-71
2023/03/08 05:27:02;;;;;;;18.90;13.50;;;;;;;;;;5032353;28;20370;-71
2023/03/08 05:29:29;;;;;;;18.40;12.65;;;;;;;;;;5040536;28;20810;-71
2023/03/08 05:31:59;;;;;;;21.88;13.90;;;;;;;;;;5042920;28;20041;-71
2023/03/08 05:34:31;;;;;;;22.50;13.98;;;;;;;;;;5034844;28;20043;-71
2023/03/08 05:36:58;;;;;;;23.25;14.45;;;;;;;;;;5048779;28;20037;-71
2023/03/08 05:39:25;;;;;;;20.23;13.45;;;;;;;;;;5045056;28;20050;-71
2023/03/08 05:41:52;;;;;;;21.13;15.00;;;;;;;;;;5044238;28;20039;-71
2023/03/08 05:44:24;;;;;;;21.42;14.82;;;;;;;;;;5042514;28;20490;-71
2023/03/08 05:46:53;;;;;;;21.25;14.45;;;;;;;;;;5032138;28;20112;-71
2023/03/08 05:49:24;;;;;;;24.33;15.55;;;;;;;;;;5043767;28;20055;-71
2023/03/08 05:51:53;;;;;;;22.17;14.20;;;;;;;;;;5045374;28;20052;-71
2023/03/08 05:54:19;;;;;;;20.67;13.77;;;;;;;;;;5039698;28;20595;-71
2023/03/08 05:56:49;;;;;;;21.17;14.20;;;;;;;;;;5042698;28;20028;-71
2023/03/08 05:59:16;;;;;;;21.80;13.98;;;;;;;;;;5047908;28;20754;-71
2023/03/08 06:01:42;;;;;;;20.75;13.60;;;;;;;;;;5044849;28;20041;-71
2023/03/08 06:04:11;;;;;;;22.08;13.93;;;;;;;;;;5047440;28;20029;-71
2023/03/08 06:06:42;;;;;;;23.13;15.27;;;;;;;;;;5044103;28;20480;-71
2023/03/08 06:09:12;;;;;;;26.02;14.48;;;;;;;;;;5044995;28;20527;-71
2023/03/08 06:11:44;;;;;;;22.48;15.23;;;;;;;;;;5044553;28;20467;-71
2023/03/08 06:14:13;;;;;;;22.23;14.35;;;;;;;;;;5042094;28;20141;-71
2023/03/08 06:16:42;;;;;;;23.75;15.10;;;;;;;;;;5044165;28;20071;-71
2023/03/08 06:19:14;;;;;;;21.40;14.05;;;;;;;;;;5031993;28;20098;-71
2023/03/08 06:21:40;;;;;;;21.25;14.30;;;;;;;;;;5043582;28;20029;-71
2023/03/08 06:24:10;;;;;;;22.40;14.32;;;;;;;;;;5040069;28;20076;-71
2023/03/08 06:26:37;;;;;;;20.65;13.77;;;;;;;;;;5043429;28;20053;-71
2023/03/08 06:29:03;;;;;;;19.58;13.13;;;;;;;;;;5046753;28;20052;-71
2023/03/08 06:31:30;;;;;;;21.02;12.23;;;;;;;;;;5043506;28;20033;-71
2023/03/08 06:33:56;;;;;;;19.92;13.30;;;;;;;;;;5028068;28;20033;-71
2023/03/08 06:36:23;;;;;;;18.90;12.30;;;;;;;;;;5041617;28;20171;-71
2023/03/08 06:38:53;;;;;;;17.40;11.70;;;;;;;;;;5041705;28;20044;-71
2023/03/08 06:41:20;;;;;;;17.27;11.88;;;;;;;;;;5038837;28;20037;-71
2023/03/08 06:43:50;;;;;;;18.65;12.35;;;;;;;;;;5040612;28;20036;-71
2023/03/08 06:46:17;;;;;;;17.58;11.77;;;;;;;;;;5045803;28;20126;-71
2023/03/08 06:48:43;;;;;;;12.82;8.75;;;;;;;;;;5038531;28;20042;-71
2023/03/08 06:51:11;;;;;;;13.02;8.52;;;;;;;;;;5044650;28;20065;-71
2023/03/08 06:53:38;;;;;;;13.95;8.88;;;;;;;;;;5040565;28;20030;-71
2023/03/08 06:56:05;;;;;;;12.55;7.93;;;;;;;;;;5039085;28;20091;-71
2023/03/08 06:58:32;;;;;;;12.77;7.75;;;;;;;;;;5041562;28;20027;-71
2023/03/08 07:00:59;;;;;;;11.90;8.00;;;;;;;;;;5041721;28;20315;-72
2023/03/08 07:03:26;;;;;;;11.02;6.72;;;;;;;;;;5035327;28;20022;-71
2023/03/08 07:05:53;;;;;;;10.02;7.15;;;;;;;;;;5041964;28;20147;-71
2023/03/08 07:08:27;;;;;;;11.75;7.47;;;;;;;;;;5033599;28;20036;-71
2023/03/08 07:10:57;;;;;;;8.40;5.75;;;;;;;;;;5035033;28;23169;-72
2023/03/08 07:13:24;;;;;;;7.75;5.57;;;;;;;;;;5033813;28;20123;-71
2023/03/08 07:15:50;;;;;;;6.97;4.95;;;;;;;;;;5029091;28;20033;-72
2023/03/08 07:18:18;;;;;;;5.95;3.97;;;;;;;;;;5041173;28;20021;-71
2023/03/08 07:20:45;;;;;;;6.15;4.30;;;;;;;;;;5041326;28;20035;-71
2023/03/08 07:23:12;;;;;;;5.32;4.13;;;;;;;;;;5052499;28;20029;-71
2023/03/08 07:25:40;;;;;;;6.35;3.85;;;;;;;;;;5042354;28;20090;-72
2023/03/08 07:28:08;;;;;;;5.63;3.78;;;;;;;;;;5039438;28;20025;-71
2023/03/08 07:30:34;;;;;;;5.57;4.13;;;;;;;;;;5042655;28;20025;-71
2023/03/08 07:33:00;;;;;;;7.82;4.90;;;;;;;;;;5045594;28;20029;-71
2023/03/08 07:35:28;;;;;;;6.95;4.78;;;;;;;;;;5049120;28;20095;-71
2023/03/08 07:37:54;;;;;;;9.07;5.07;;;;;;;;;;5046680;28;20045;-71
2023/03/08 07:40:24;;;;;;;6.80;4.97;;;;;;;;;;5045588;28;20025;-71
2023/03/08 07:42:53;;;;;;;7.80;5.50;;;;;;;;;;5035894;28;20022;-71
2023/03/08 07:45:20;;;;;;;7.10;4.90;;;;;;;;;;5054811;28;20055;-71
2023/03/08 07:47:51;;;;;;;5.95;3.95;;;;;;;;;;5040490;28;20033;-71
2023/03/08 07:50:18;;;;;;;5.93;3.50;;;;;;;;;;5046077;28;20036;-72
2023/03/08 07:52:45;;;;;;;4.80;3.13;;;;;;;;;;5044477;28;20025;-72
2023/03/08 07:55:11;;;;;;;4.45;3.25;;;;;;;;;;5045312;28;20548;-72
2023/03/08 07:57:37;;;;;;;4.55;3.10;;;;;;;;;;5035433;28;20116;-72
2023/03/08 08:00:08;;;;;;;6.63;3.67;;;;;;;;;;5057446;28;20554;-72
2023/03/08 08:02:36;;;;;;;4.60;3.50;;;;;;;;;;5039695;28;20016;-72
2023/03/08 08:05:03;;;;;;;4.05;3.55;;;;;;;;;;5042596;28;20111;-72
2023/03/08 08:07:30;;;;;;;4.65;3.50;;;;;;;;;;5041341;28;20039;-72
2023/03/08 08:09:59;;;;;;;4.50;3.33;;;;;;;;;;5033343;28;20032;-72
2023/03/08 08:12:25;;;;;;;4.93;3.33;;;2.10;99.90;;;;;;5047812;28;20303;-72
2023/03/08 08:14:54;;;;;;;5.80;3.28;;;2.20;99.90;;;;;;5045814;28;20086;-72
2023/03/08 08:17:21;;;;;;;4.82;3.47;;;2.20;99.90;;;;;;5042357;28;20549;-72
2023/03/08 08:19:48;;;;;;;5.10;3.45;;;2.20;99.90;;;;;;5044271;28;20025;-72
2023/03/08 08:22:16;;;;;;;4.85;3.28;;;2.40;99.90;;;;;;5042653;28;20029;-72
2023/03/08 08:24:44;;;;;;;5.93;4.03;;;2.50;99.90;;;;;;5038573;28;20044;-72
2023/03/08 08:27:13;;;;;;;6.53;3.85;;;2.60;99.90;;;;;;5036971;28;20033;-72
2023/03/08 08:29:42;;;;;;;7.80;4.40;;;2.70;99.90;;;;;;5041442;28;20057;-71
2023/03/08 08:32:09;;;;;;;5.50;4.30;;;2.80;99.90;;;;;;5032486;28;20033;-71
2023/03/08 08:34:37;;;;;;;7.03;4.55;;;2.90;99.90;;;;;;5037130;28;20033;-71
2023/03/08 08:37:03;;;;;;;6.82;4.80;;;3.00;99.90;;;;;;5038394;28;20032;-71
2023/03/08 08:39:29;;;;;;;6.25;4.85;;;;;;;;;;5033155;28;20067;-71
2023/03/08 08:41:57;;;;;;;7.65;5.45;;;;;;;;;;5038378;28;20457;-71
2023/03/08 08:44:23;;;;;;;8.43;5.30;;;;;;;;;;5039580;28;20037;-71
2023/03/08 08:46:50;;;;;;;8.73;5.18;;;;;;;;;;5044541;28;20045;-71
2023/03/08 08:49:18;;;;;;;7.63;5.10;;;;;;;;;;5040844;28;20036;-71
2023/03/08 08:51:44;;;;;;;7.53;5.57;;;;;;;;;;5041179;28;20056;-71
2023/03/08 08:54:17;;;;;;;7.47;4.78;;;;;;;;;;5042559;28;20032;-70
2023/03/08 08:56:44;;;;;;;6.15;4.93;;;;;;;;;;5039644;28;20080;-70
2023/03/08 08:59:13;;;;;;;5.97;4.53;;;;;;;;;;5048981;28;20060;-71
2023/03/08 09:01:42;;;;;;;6.50;4.40;;;;;;;;;;5047859;28;20025;-71
2023/03/08 09:04:09;;;;;;;5.70;4.03;;;;;;;;;;5039512;28;20057;-71
2023/03/08 09:06:37;;;;;;;5.25;3.20;;;;;;;;;;5046728;28;20045;-71
2023/03/08 09:09:07;;;;;;;6.05;3.15;;;;;;;;;;5049867;28;20033;-70
2023/03/08 09:11:34;;;;;;;3.78;3.03;;;;;;;;;;5062184;28;20547;-70
2023/03/08 09:14:04;;;;;;;4.55;2.80;;;;;;;;;;5043967;28;20025;-70
2023/03/08 09:16:38;;;;;;;5.78;3.05;;;;;;;;;;5052812;28;20024;-70
2023/03/08 09:19:10;;;;;;;4.05;2.80;;;;;;;;;;5043689;28;20025;-70
2023/03/08 09:21:39;;;;;;;3.20;2.78;;;;;;;;;;5032673;28;20028;-69
2023/03/08 09:24:10;;;;;;;4.05;2.60;;;;;;;;;;5048492;28;20036;-69
2023/03/08 09:26:38;;;;;;;4.00;2.88;;;;;;;;;;5045457;28;20060;-69
2023/03/08 09:29:06;;;;;;;3.78;2.65;;;;;;;;;;5041562;28;20079;-69
2023/03/08 09:31:33;;;;;;;4.68;2.88;;;;;;;;;;5034625;28;20245;-69
2023/03/08 09:34:07;;;;;;;3.90;2.75;;;;;;;;;;5042890;28;20102;-70
2023/03/08 09:36:34;;;;;;;3.10;2.75;;;;;;;;;;5044759;28;20041;-69
2023/03/08 09:39:08;;;;;;;3.28;2.80;;;;;;;;;;5039650;28;20017;-69
2023/03/08 09:41:34;;;;;;;;;;;;;;;;;;5048628;28;20029;-70
2023/03/08 09:44:24;;;;;;;6.47;3.40;;;;;;;;;;5052012;28;19954;-70
2023/03/08 09:47:05;;;;;;;3.55;3.10;;;;;;;;;;5041982;28;20037;-69
2023/03/08 09:49:33;;;;;;;3.72;3.03;;;;;;;;;;5047981;28;20040;-71
2023/03/08 09:52:16;;;;;;;5.18;3.60;;;;;;;;;;5044595;28;20060;-71
2023/03/08 09:54:45;;;;;;;5.57;3.95;;;;;;;;;;5043839;28;20056;-71
2023/03/08 09:57:16;;;;;;;5.32;3.70;;;;;;;;;;5049964;28;20451;-70
2023/03/08 10:00:10;;;;;;;5.28;3.58;;;;;;;;;;5049965;28;20029;-71
2023/03/08 10:02:47;;;;;;;3.95;3.50;;;;;;;;;;5036828;28;20033;-70
2023/03/08 10:05:24;;;;;;;7.35;3.78;;;;;;;;;;5047681;28;20665;-71
2023/03/08 10:07:58;;;;;;;5.82;3.75;;;;;;;;;;5047217;28;20056;-70
2023/03/08 10:10:34;;;;;;;6.57;4.10;;;;;;;;;;5046526;28;20041;-71
2023/03/08 10:13:27;;;;;;;6.30;4.45;;;;;;;;;;5039820;28;20040;-70
2023/03/08 10:16:01;;;;;;;5.32;4.43;;;;;;;;;;5014769;28;20044;-71
2023/03/08 10:18:30;;;;;;;8.60;4.82;;;;;;;;;;5046551;28;20029;-71
2023/03/08 10:21:03;;;;;;;6.07;4.05;;;;;;;;;;5038276;28;20021;-71
2023/03/08 10:23:32;;;;;;;5.30;4.00;;;;;;;;;;5039308;28;20116;-71
2023/03/08 10:26:03;;;;;;;6.63;4.72;;;;;;;;;;5044848;28;20497;-71
2023/03/08 10:28:29;;;;;;;5.70;4.30;;;;;;;;;;5049618;28;20040;-71
2023/03/08 10:31:04;;;;;;;5.93;4.28;;;;;;;;;;5039199;28;20078;-71
2023/03/08 10:33:32;;;;;;;6.03;4.45;;;;;;;;;;5036238;28;20084;-70
2023/03/08 10:36:08;;;;;;;6.25;4.30;;;;;;;;;;5047697;28;20228;-70
2023/03/08 10:38:36;;;;;;;6.22;4.35;;;;;;;;;;5035121;28;20033;-70
2023/03/08 10:41:06;;;;;;;4.45;3.97;;;;;;;;;;5033946;28;20049;-69
2023/03/08 10:43:36;;;;;;;5.25;4.13;;;;;;;;;;5038672;28;20024;-69
2023/03/08 10:46:12;;;;;;;5.07;4.13;;;;;;;;;;5031641;28;20021;-69
2023/03/08 10:48:39;;;;;;;4.55;4.00;;;;;;;;;;5032787;28;20552;-69
2023/03/08 10:51:16;;;;;;;5.45;4.15;;;;;;;;;;5038782;28;20194;-69
2023/03/08 10:53:53;;;;;;;5.45;4.57;;;;;;;;;;5054767;28;20102;-69
2023/03/08 10:56:28;;;;;;;6.50;4.35;;;;;;;;;;5041325;28;20095;-69
2023/03/08 10:59:00;;;;;;;6.15;4.65;;;;;;;;;;5040764;28;20479;-70
2023/03/08 11:01:33;;;;;;;4.82;4.07;;;;;;;;;;5043200;28;20060;-69
2023/03/08 11:04:15;;;;;;;5.55;4.60;;;;;;;;;;5037009;28;20033;-69
2023/03/08 11:06:41;;;;;;;5.85;4.70;;;;;;;;;;5044928;28;20115;-69
2023/03/08 11:09:25;;;;;;;5.78;4.63;;;;;;;;;;5040857;28;20420;-69
2023/03/08 11:11:52;;;;;;;6.25;4.88;;;;;;;;;;5041355;28;20121;-69
2023/03/08 11:14:22;;;;;;;6.00;4.80;;;;;;;;;;5041311;28;20078;-69
2023/03/08 11:16:58;;;;;;;5.88;4.75;;;;;;;;;;5041211;28;20611;-69
2023/03/08 11:19:41;;;;;;;7.05;5.30;;;;;;;;;;5037656;28;20037;-69
2023/03/08 11:22:07;;;;;;;7.78;4.97;;;;;;;;;;5041027;28;20052;-69
2023/03/08 11:24:58;;;;;;;6.85;5.20;;;;;;;;;;5039625;28;20106;-70
2023/03/08 11:27:42;;;;;;;7.45;5.43;;;;;;;;;;5043394;28;20029;-70
2023/03/08 11:30:16;;;;;;;5.75;4.70;;;;;;;;;;5040466;28;20058;-70
2023/03/08 11:33:06;;;;;;;7.05;5.35;;;;;;;;;;5047190;28;20064;-70
2023/03/08 11:35:53;;;;;;;7.35;5.60;;;;;;;;;;5030075;28;20044;-70
2023/03/08 11:38:34;;;;;;;7.95;5.70;;;;;;;;;;5033030;28;20072;-70
2023/03/08 11:41:14;;;;;;;7.38;5.70;;;;;;;;;;5036322;28;21273;-70
2023/03/08 11:43:47;;;;;;;7.93;6.20;;;;;;;;;;5039262;28;20036;-70
2023/03/08 11:46:32;;;;;;;7.97;5.82;;;;;;;;;;5040295;28;21664;-70
2023/03/08 11:49:00;;;;;;;8.48;6.25;;;;;;;;;;5040231;28;20444;-70
2023/03/08 11:51:45;;;;;;;7.65;6.38;;;;;;;;;;5040720;28;20049;-70
2023/03/08 11:54:18;;;;;;;7.32;6.10;;;;;;;;;;5042312;28;20044;-71
2023/03/08 11:56:54;;;;;;;8.10;5.47;;;;;;;;;;5040943;28;20064;-70
2023/03/08 11:59:23;;;;;;;8.02;6.22;;;;;;;;;;5039608;28;20021;-70
2023/03/08 12:02:04;;;;;;;6.70;5.60;;;;;;;;;;5044436;28;20116;-71
2023/03/08 12:04:35;;;;;;;6.60;5.78;;;;;;;;;;5042413;28;20393;-71
2023/03/08 12:07:12;;;;;;;6.32;5.07;;;;;;;;;;5043004;28;20041;-71
2023/03/08 12:09:44;;;;;;;6.25;5.20;;;;;;;;;;5058540;28;20053;-70
2023/03/08 12:12:18;;;;;;;6.93;5.63;;;;;;;;;;5044254;28;20344;-70
2023/03/08 12:14:50;;;;;;;6.88;6.05;;;;;;;;;;5037336;28;20489;-70
2023/03/08 12:17:23;;;;;;;5.60;4.45;;;;;;;;;;5039863;28;20033;-71
2023/03/08 12:19:53;;;;;;;8.27;6.45;;;;;;;;;;5041237;28;20450;-71
2023/03/08 12:22:38;;;;;;;7.35;5.82;;;;;;;;;;5037776;28;20025;-71
2023/03/08 12:25:05;;;;;;;6.85;5.72;;;;;;;;;;5046645;28;20025;-71
2023/03/08 12:27:45;;;;;;;7.32;6.00;;;;;;;;;;5040310;28;20036;-71
2023/03/08 12:30:12;;;;;;;7.75;6.35;;;;;;;;;;5046894;28;20021;-71
2023/03/08 12:32:40;;;;;;;8.15;6.20;;;;;;;;;;4689607;28;10000269;-70
2023/03/08 12:35:24;;;;;;;8.80;6.15;;;;;;;;;;5045138;28;20094;-71
2023/03/08 12:37:56;;;;;;;9.30;6.97;;;;;;;;;;5026905;28;20587;-70
2023/03/08 12:40:29;;;;;;;8.50;6.70;;;;;;;;;;5042156;28;20025;-70
2023/03/08 12:42:55;;;;;;;;;;;;;;;;;;5044046;28;20120;-71
2023/03/08 12:45:22;;;;;;;7.25;6.10;;;;;;;;;;5041461;28;19999;-70
2023/03/08 12:48:00;;;;;;;8.82;6.32;;;;;;;;;;5040162;28;20040;-72
2023/03/08 12:50:26;;;;;;;8.57;6.82;;;;;;;;;;5042732;28;20069;-70
2023/03/08 12:52:54;;;;;;;8.20;6.35;;;;;;;;;;5044783;28;20368;-71
2023/03/08 12:55:29;;;;;;;8.40;6.80;;;;;;;;;;5047588;28;20057;-70
2023/03/08 12:57:56;;;;;;;8.80;6.50;;;;;;;;;;5030760;28;20045;-71
2023/03/08 13:00:26;;;;;;;7.15;6.22;;;;;;;;;;5038438;28;20116;-71
2023/03/08 13:03:18;;;;;;;8.82;6.72;;;;;;;;;;5036616;28;20040;-71
2023/03/08 13:05:46;;;;;;;9.13;6.47;;;;;;;;;;5038384;28;20512;-70
2023/03/08 13:08:12;;;;;;;9.05;6.55;;;;;;;;;;5047671;28;20040;-70
2023/03/08 13:10:57;;;;;;;8.57;7.00;;;;;;;;;;5042597;28;20030;-72
2023/03/08 13:13:27;;;;;;;8.65;6.70;;;;;;;;;;5050335;28;20029;-71
2023/03/08 13:16:04;;;;;;;8.88;7.10;;;;;;;;;;5045654;28;20037;-71
2023/03/08 13:18:30;;;;;;;9.32;7.20;;;;;;;;;;5052677;28;20648;-72
2023/03/08 13:21:14;;;;;;;9.90;7.70;;;;;;;;;;5048962;28;20441;-71
2023/03/08 13:23:48;;;;;;;10.40;7.85;;;;;;;;;;5047557;28;20029;-71
2023/03/08 13:26:15;;;;;;;10.80;8.20;;;;;;;;;;5040421;28;20029;-72
2023/03/08 13:28:42;;;;;;;9.05;7.53;;;;;;;;;;5047539;28;20028;-71
2023/03/08 13:31:28;;;;;;;10.43;7.95;;;;;;;;;;5046397;28;20745;-72
2023/03/08 13:33:55;;;;;;;11.77;9.00;;;;;;;;;;5051249;28;20052;-72
2023/03/08 13:36:26;;;;;;;11.82;8.30;;;;;;;;;;5045910;28;20140;-70
2023/03/08 13:38:56;;;;;;;14.35;9.30;;;;;;;;;;5044976;28;20615;-71
2023/03/08 13:41:33;;;;;;;12.20;9.48;;;;;;;;;;5037271;28;20032;-71
2023/03/08 13:44:03;;;;;;;13.60;9.15;;;;;;;;;;5045810;28;20044;-70
2023/03/08 13:46:29;;;;;;;12.80;9.82;;;;;;;;;;5045076;28;20028;-71
2023/03/08 13:48:55;;;;;;;12.38;9.82;;;;;;;;;;5050606;28;20041;-70
2023/03/08 13:51:23;;;;;;;13.45;10.00;;;;;;;;;;5040371;28;20049;-70
2023/03/08 13:53:49;;;;;;;12.57;10.05;;;;;;;;;;5043993;28;20029;-70
2023/03/08 13:56:27;;;;;;;15.73;10.43;;;;;;;;;;5043897;28;20524;-70
2023/03/08 13:58:54;;;;;;;14.68;9.98;;;;;;;;;;5042386;28;20446;-70
2023/03/08 14:01:21;;;;;;;16.75;10.63;;;;;;;;;;5035346;28;20044;-70
2023/03/08 14:03:53;;;;;;;15.35;10.93;;;;;;;;;;5035754;28;20505;-70
2023/03/08 14:06:23;;;;;;;13.95;10.45;;;;;;;;;;5043106;28;20037;-71
2023/03/08 14:08:49;;;;;;;14.98;10.63;;;;;;;;;;5037915;28;20524;-70
2023/03/08 14:11:22;;;;;;;15.50;10.77;;;;;;;;;;5042577;28;20033;-70
2023/03/08 14:13:49;;;;;;;;;;;;;;;;;;5034564;28;20032;-70
2023/03/08 14:16:35;;;;;;;15.90;10.93;;;;;;;;;;5041393;28;19917;-70
2023/03/08 14:19:37;;;;;;;17.85;11.85;;;3.60;99.90;;;;;;5034269;28;20413;-69
2023/03/08 14:22:13;;;;;;;18.02;12.02;;;3.60;99.90;;;;;;5039887;28;20040;-69
2023/03/08 14:24:41;;;;;;;16.45;11.75;;;3.40;99.90;;;;;;5036561;28;20044;-69
2023/03/08 14:27:15;;;;;;;18.33;11.90;;;3.30;99.90;;;;;;5040375;28;20037;-70
2023/03/08 14:29:43;;;;;;;15.85;11.55;;;3.30;99.90;;;;;;5038747;28;20120;-70
2023/03/08 14:32:09;;;;;;;15.40;11.32;;;3.30;99.90;;;;;;5036630;28;20040;-70
2023/03/08 14:34:38;;;;;;;17.52;11.80;;;3.30;99.90;;;;;;5048054;28;20037;-70
2023/03/08 14:37:16;;;;;;;21.38;12.98;;;3.40;99.90;;;;;;5039175;28;20041;-70
2023/03/08 14:39:47;;;;;;;21.95;12.00;;;3.50;99.90;;;;;;5040667;28;20040;-69
2023/03/08 14:42:32;;;;;;;21.05;12.50;;;3.60;99.90;;;;;;5042633;28;20029;-70
2023/03/08 14:45:03;;;;;;;19.30;13.30;;;3.60;99.90;;;;;;5033647;28;20053;-70
2023/03/08 14:47:32;;;;;;;19.13;12.13;;;3.60;99.90;;;;;;5035875;28;20041;-70
2023/03/08 14:50:20;;;;;;;19.80;13.80;;;3.50;99.90;;;;;;5033171;28;20041;-70
2023/03/08 14:52:49;;;;;;;20.20;14.63;;;3.50;99.90;;;;;;5037359;28;20068;-70
2023/03/08 14:55:34;;;;;;;23.77;13.93;;;3.40;99.90;;;;;;5040201;28;20045;-70
2023/03/08 14:58:02;;;;;;;22.52;14.35;;;;;;;;;;5035649;28;20493;-70
2023/03/08 15:00:28;;;;;;;22.25;14.80;;;;;;;;;;5034392;28;20033;-69
2023/03/08 15:02:55;;;;;;;23.42;14.15;;;;;;;;;;5045453;28;20033;-69
2023/03/08 15:05:25;;;;;;;22.30;14.20;;;;;;;;;;5035755;28;20154;-69
2023/03/08 15:07:52;;;;;;;18.50;13.65;;;;;;;;;;5036233;28;20064;-70
2023/03/08 15:10:26;;;;;;;21.70;13.75;;;;;;;;;;5052933;28;20081;-70
2023/03/08 15:12:52;;;;;;;22.05;14.43;;;;;;;;;;5033306;28;20037;-70
2023/03/08 15:15:18;;;;;;;22.75;14.57;;;;;;;;;;5034658;28;20028;-69
2023/03/08 15:17:44;;;;;;;24.02;14.45;;;3.20;99.90;;;;;;5031159;28;20506;-69
2023/03/08 15:20:11;;;;;;;25.02;14.55;;;3.20;99.90;;;;;;5047045;28;20029;-69
2023/03/08 15:22:47;;;;;;;25.83;15.13;;;3.20;99.90;;;;;;5043318;28;20485;-69
2023/03/08 15:25:22;;;;;;;22.10;14.98;;;3.10;99.90;;;;;;5044418;28;20108;-70
2023/03/08 15:27:53;;;;;;;23.08;14.30;;;3.00;99.90;;;;;;5033752;28;20044;-69
2023/03/08 15:30:25;;;;;;;24.75;14.40;;;3.00;99.90;;;;;;5039045;28;20037;-70
2023/03/08 15:32:53;;;;;;;21.45;13.95;;;3.00;99.90;;;;;;5037101;28;20077;-69
2023/03/08 15:35:19;;;;;;;20.25;13.48;;;2.90;99.90;;;;;;5056685;28;20563;-68
2023/03/08 15:37:48;;;;;;;18.45;12.80;;;2.90;99.90;;;;;;5046186;28;20392;-70